createdAt,value
2023-02-19T00:01:48.618Z,1021.94
2023-02-19T00:06:50.078Z,1021.92
2023-02-19T00:11:51.262Z,1021.92
2023-02-19T00:16:52.473Z,1021.82
2023-02-19T00:21:53.733Z,1021.77
2023-02-19T00:26:54.941Z,1021.75
2023-02-19T00:31:56.190Z,1021.72
2023-02-19T00:36:57.497Z,1021.51
2023-02-19T00:41:58.698Z,1021.51
2023-02-19T00:46:59.851Z,1021.48
2023-02-19T00:52:01.024Z,1021.49
2023-02-19T00:57:02.170Z,1021.49
2023-02-19T01:02:03.374Z,1021.58
2023-02-19T01:07:04.585Z,1021.53
2023-02-19T01:12:05.798Z,1021.47
2023-02-19T01:17:06.977Z,1021.39
2023-02-19T01:22:08.276Z,1021.26
2023-02-19T01:27:09.472Z,1021.33
2023-02-19T01:32:10.715Z,1021.25
2023-02-19T01:37:12.956Z,1021.25
2023-02-19T01:42:12.120Z,1021.24
2023-02-19T01:47:13.317Z,1021.19
2023-02-19T01:52:14.438Z,1021.17
2023-02-19T01:57:15.941Z,1021.15
2023-02-19T02:02:15.173Z,1021.15
2023-02-19T02:07:16.338Z,1021.17
2023-02-19T02:12:17.579Z,1021.18
2023-02-19T02:17:18.709Z,1021.26
2023-02-19T02:22:19.909Z,1021.28
2023-02-19T02:27:21.182Z,1021.21
2023-02-19T02:32:22.488Z,1021.04
2023-02-19T02:37:23.735Z,1020.84
2023-02-19T02:42:24.933Z,1020.79
2023-02-19T02:47:26.125Z,1020.65
2023-02-19T02:52:27.278Z,1020.58
2023-02-19T02:57:28.457Z,1020.45
2023-02-19T03:02:29.666Z,1020.43
2023-02-19T03:07:30.880Z,1020.28
2023-02-19T03:12:32.026Z,1020.29
2023-02-19T03:17:33.194Z,1020.35
2023-02-19T03:22:34.403Z,1020.28
2023-02-19T03:27:35.592Z,1020.50
2023-02-19T03:32:36.826Z,1020.69
2023-02-19T03:37:38.019Z,1020.69
2023-02-19T03:42:39.256Z,1020.71
2023-02-19T03:47:40.448Z,1020.61
2023-02-19T03:52:42.695Z,1020.56
2023-02-19T03:57:41.928Z,1020.55
2023-02-19T04:02:43.027Z,1020.50
2023-02-19T04:07:43.200Z,1020.41
2023-02-19T04:12:44.375Z,1020.64
2023-02-19T04:17:45.532Z,1021.02
2023-02-19T04:22:46.760Z,1021.09
2023-02-19T04:27:47.957Z,1020.95
2023-02-19T04:32:49.095Z,1020.89
2023-02-19T04:37:50.313Z,1020.66
2023-02-19T04:42:51.518Z,1020.57
2023-02-19T04:47:52.681Z,1020.75
2023-02-19T04:52:53.870Z,1020.61
2023-02-19T04:57:55.017Z,1020.44
2023-02-19T05:02:56.232Z,1020.59
2023-02-19T05:07:57.411Z,1020.46
2023-02-19T05:12:58.605Z,1020.78
2023-02-19T05:17:59.806Z,1021.18
2023-02-19T05:23:00.997Z,1021.10
2023-02-19T05:28:02.211Z,1021.32
2023-02-19T05:33:03.420Z,1021.36
2023-02-19T05:38:04.609Z,1021.44
2023-02-19T05:43:05.835Z,1021.48
2023-02-19T05:48:06.981Z,1021.59
2023-02-19T05:53:08.202Z,1021.53
2023-02-19T05:58:09.607Z,1021.18
2023-02-19T06:03:10.776Z,1021.38
2023-02-19T06:08:12.026Z,1021.51
2023-02-19T06:13:13.182Z,1021.38
2023-02-19T06:18:14.350Z,1021.52
2023-02-19T06:23:15.570Z,1021.69
2023-02-19T06:28:16.767Z,1021.60
2023-02-19T06:33:17.889Z,1021.74
2023-02-19T06:38:19.113Z,1021.72
2023-02-19T06:43:20.337Z,1021.70
2023-02-19T06:48:21.584Z,1021.67
2023-02-19T06:53:22.814Z,1022.02
2023-02-19T06:58:24.046Z,1022.02
2023-02-19T07:03:25.296Z,1022.11
2023-02-19T07:08:29.246Z,1022.34
2023-02-19T07:13:26.747Z,1022.32
2023-02-19T07:18:26.886Z,1022.20
2023-02-19T07:23:28.055Z,1022.19
2023-02-19T07:28:29.241Z,1022.41
2023-02-19T07:33:30.417Z,1022.34
2023-02-19T07:38:31.669Z,1022.40
2023-02-19T07:43:32.853Z,1022.57
2023-02-19T07:48:34.030Z,1022.66
2023-02-19T07:53:35.264Z,1022.89
2023-02-19T07:58:36.469Z,1022.79
2023-02-19T08:03:37.728Z,1022.82
2023-02-19T08:08:38.913Z,1022.89
2023-02-19T08:13:40.074Z,1022.89
2023-02-19T08:18:41.229Z,1023.13
2023-02-19T08:23:42.379Z,1023.04
2023-02-19T08:28:43.575Z,1023.06
2023-02-19T08:33:44.821Z,1023.03
2023-02-19T08:38:45.939Z,1023.03
2023-02-19T08:43:47.147Z,1023.08
2023-02-19T08:48:48.388Z,1023.03
2023-02-19T08:53:49.588Z,1023.03
2023-02-19T08:58:50.765Z,1023.09
2023-02-19T09:03:52.961Z,1023.14
2023-02-19T09:08:52.245Z,1023.25
2023-02-19T09:13:53.417Z,1023.36
2023-02-19T09:18:54.566Z,1023.22
2023-02-19T09:23:55.759Z,1023.33
2023-02-19T09:28:57.000Z,1023.34
2023-02-19T09:33:58.188Z,1023.42
2023-02-19T09:38:58.314Z,1023.38
2023-02-19T09:43:59.540Z,1023.59
2023-02-19T09:49:00.930Z,1023.52
2023-02-19T09:54:02.147Z,1023.60
2023-02-19T09:59:03.377Z,1023.59
2023-02-19T10:04:04.524Z,1023.67
2023-02-19T10:09:05.877Z,1023.49
2023-02-19T10:14:07.152Z,1023.50
2023-02-19T10:19:09.311Z,1023.53
2023-02-19T10:24:08.467Z,1023.43
2023-02-19T10:29:09.889Z,1023.54
2023-02-19T10:34:12.056Z,1023.49
2023-02-19T10:39:11.183Z,1023.47
2023-02-19T10:44:12.333Z,1023.52
2023-02-19T10:49:14.717Z,1023.30
2023-02-19T10:54:13.959Z,1023.30
2023-02-19T10:59:15.173Z,1023.38
2023-02-19T11:04:17.578Z,1023.28
2023-02-19T11:09:21.028Z,1023.18
2023-02-19T11:14:18.229Z,1023.16
2023-02-19T11:19:19.460Z,1022.98
2023-02-19T11:24:20.762Z,1023.04
2023-02-19T11:29:23.201Z,1023.04
2023-02-19T11:34:22.340Z,1023.03
2023-02-19T11:39:23.750Z,1023.06
2023-02-19T11:44:22.936Z,1023.02
2023-02-19T11:49:24.273Z,1022.97
2023-02-19T11:54:25.537Z,1023.02
2023-02-19T11:59:27.414Z,1023.02
2023-02-19T12:04:27.754Z,1022.74
2023-02-19T12:09:27.925Z,1022.74
2023-02-19T12:14:27.077Z,1022.61
2023-02-19T12:19:28.263Z,1022.43
2023-02-19T12:24:29.926Z,1022.41
2023-02-19T12:29:29.293Z,1022.26
2023-02-19T12:34:30.475Z,1022.37
2023-02-19T12:39:31.635Z,1022.29
2023-02-19T12:44:32.790Z,1022.37
2023-02-19T12:49:34.207Z,1022.41
2023-02-19T12:54:33.695Z,1022.55
2023-02-19T12:59:37.102Z,1022.63
2023-02-19T13:04:37.516Z,1022.68
2023-02-19T13:09:36.734Z,1022.83
2023-02-19T13:14:43.894Z,1023.02
2023-02-19T13:19:39.294Z,1023.11
2023-02-19T13:24:40.752Z,1023.33
2023-02-19T13:29:42.183Z,1023.24
2023-02-19T13:34:42.517Z,1023.28
2023-02-19T13:39:41.929Z,1023.15
2023-02-19T13:44:45.081Z,1023.25
2023-02-19T13:49:42.311Z,1023.20
2023-02-19T13:54:43.764Z,1023.18
2023-02-19T13:59:43.102Z,1023.14
2023-02-19T14:04:45.535Z,1023.15
2023-02-19T14:09:44.973Z,1023.22
2023-02-19T14:14:46.237Z,1023.13
2023-02-19T14:19:47.415Z,1022.97
2023-02-19T14:24:48.735Z,1023.04
2023-02-19T14:29:50.047Z,1023.21
2023-02-19T14:34:54.436Z,1023.16
2023-02-19T14:39:52.924Z,1023.24
2023-02-19T14:44:52.280Z,1023.37
2023-02-19T14:49:53.681Z,1023.26
2023-02-19T14:54:55.183Z,1023.14
2023-02-19T14:59:54.779Z,1023.06
2023-02-19T15:04:56.213Z,1022.97
2023-02-19T15:09:55.725Z,1023.05
2023-02-19T15:14:55.145Z,1023.09
2023-02-19T15:19:56.546Z,1023.13
2023-02-19T15:24:58.054Z,1023.20
2023-02-19T15:29:57.493Z,1023.30
2023-02-19T15:34:58.983Z,1023.41
2023-02-19T15:40:00.424Z,1023.48
2023-02-19T15:45:00.890Z,1023.60
2023-02-19T15:50:01.390Z,1023.73
2023-02-19T15:55:00.966Z,1023.75
2023-02-19T16:00:01.345Z,1023.83
2023-02-19T16:05:00.820Z,1024.00
2023-02-19T16:10:01.019Z,1023.88
2023-02-19T16:15:00.529Z,1023.88
2023-02-19T16:20:00.197Z,1024.00
2023-02-19T16:25:01.722Z,1024.14
2023-02-19T16:30:01.364Z,1024.17
2023-02-19T16:34:58.878Z,1024.11
2023-02-19T16:40:00.287Z,1024.08
2023-02-19T16:45:01.797Z,1024.18
2023-02-19T16:50:03.217Z,1024.07
2023-02-19T16:55:02.383Z,1023.96
2023-02-19T17:00:03.783Z,1024.07
2023-02-19T17:05:03.077Z,1024.17
2023-02-19T17:10:04.478Z,1024.23
2023-02-19T17:15:04.082Z,1024.41
2023-02-19T17:20:03.574Z,1024.53
2023-02-19T17:25:04.500Z,1024.69
2023-02-19T17:30:04.200Z,1024.62
2023-02-19T17:35:04.955Z,1024.65
2023-02-19T17:40:04.483Z,1024.75
2023-02-19T17:45:04.010Z,1024.77
2023-02-19T17:50:03.390Z,1024.76
2023-02-19T17:55:07.310Z,1024.78
2023-02-19T18:00:06.005Z,1024.83
2023-02-19T18:05:07.066Z,1024.87
2023-02-19T18:10:08.923Z,1024.86
2023-02-19T18:15:08.678Z,1024.90
2023-02-19T18:20:10.602Z,1024.73
2023-02-19T18:25:06.827Z,1024.79
2023-02-19T18:30:09.206Z,1024.71
2023-02-19T18:35:07.585Z,1024.78
2023-02-19T18:40:04.602Z,1024.98
2023-02-19T18:45:08.795Z,1025.14
2023-02-19T18:50:10.596Z,1025.30
2023-02-19T18:55:11.416Z,1025.36
2023-02-19T19:00:09.678Z,1025.40
2023-02-19T19:05:09.127Z,1025.27
2023-02-19T19:10:13.570Z,1025.33
2023-02-19T19:15:10.765Z,1025.38
2023-02-19T19:20:12.123Z,1025.36
2023-02-19T19:25:14.325Z,1025.43
2023-02-19T19:30:13.863Z,1025.60
2023-02-19T19:35:13.390Z,1025.59
2023-02-19T19:40:13.921Z,1025.57
2023-02-19T19:45:14.021Z,1025.57
2023-02-19T19:50:13.561Z,1025.60
2023-02-19T19:55:13.030Z,1025.49
2023-02-19T20:00:14.288Z,1025.53
2023-02-19T20:05:14.894Z,1025.49
2023-02-19T20:10:15.483Z,1025.49
2023-02-19T20:15:15.022Z,1025.36
2023-02-19T20:20:14.321Z,1025.35
2023-02-19T20:25:15.709Z,1025.45
2023-02-19T20:30:16.328Z,1025.51
2023-02-19T20:35:15.900Z,1025.53
2023-02-19T20:40:15.172Z,1025.53
2023-02-19T20:45:17.581Z,1025.53
2023-02-19T20:50:19.011Z,1025.63
2023-02-19T20:55:29.127Z,1025.69
2023-02-19T21:00:18.749Z,1025.67
2023-02-19T21:05:17.972Z,1025.66
2023-02-19T21:10:19.420Z,1025.66
2023-02-19T21:15:18.829Z,1025.70
2023-02-19T21:20:20.230Z,1025.67
2023-02-19T21:25:21.705Z,1025.72
2023-02-19T21:30:20.956Z,1025.82
2023-02-19T21:35:22.348Z,1025.79
2023-02-19T21:40:21.756Z,1025.85
2023-02-19T21:45:24.001Z,1025.84
2023-02-19T21:50:24.098Z,1025.78
2023-02-19T21:55:24.196Z,1025.78
2023-02-19T22:00:24.292Z,1025.84
2023-02-19T22:05:24.379Z,1025.85
2023-02-19T22:10:24.500Z,1025.82
2023-02-19T22:15:24.573Z,1025.83
2023-02-19T22:20:23.684Z,1025.82
2023-02-19T22:25:24.819Z,1025.91
2023-02-19T22:30:26.984Z,1026.00
2023-02-19T22:35:26.089Z,1025.93
2023-02-19T22:40:27.193Z,1026.04
2023-02-19T22:45:29.368Z,1025.93
2023-02-19T22:50:28.517Z,1025.94
2023-02-19T22:55:29.709Z,1026.00
2023-02-19T23:00:31.840Z,1026.07
2023-02-19T23:05:30.954Z,1026.08
2023-02-19T23:10:32.052Z,1026.11
2023-02-19T23:15:33.143Z,1026.04
2023-02-19T23:20:35.242Z,1025.97
2023-02-19T23:25:35.352Z,1025.95
2023-02-19T23:30:35.574Z,1025.82
2023-02-19T23:35:34.685Z,1025.85
2023-02-19T23:40:35.823Z,1025.81
2023-02-19T23:45:37.915Z,1025.87
2023-02-19T23:50:37.031Z,1025.88
2023-02-19T23:55:39.133Z,1025.95
